Time;durP1;ratioP1;P1;durP2;ratioP2;P2;SDS_P1;SDS_P2;PMS_P1;PMS_P2;Temp;Humidity;BMP_temperature;BMP_pressure;BME280_temperature;BME280_humidity;BME280_pressure;Samples;Min_cycle;Max_cycle;Signal;HPM_P1;HPM_P2
2022/07/03 00:01:51;;;;;;;2.60;2.07;;;;;;;20.56;56.37;101546.13;5052988;28;20442;-70
2022/07/03 00:04:20;;;;;;;2.13;1.73;;;;;;;20.57;55.23;101539.47;5052967;28;20521;-70
2022/07/03 00:06:47;;;;;;;3.60;1.93;;;;;;;20.52;55.95;101536.94;5052552;28;20486;-70
2022/07/03 00:09:14;;;;;;;2.10;1.80;;;;;;;20.53;55.16;101533.84;5054448;28;20472;-70
2022/07/03 00:11:40;;;;;;;3.43;2.10;;;;;;;20.54;56.02;101540.16;5056843;28;20446;-70
2022/07/03 00:14:07;;;;;;;2.23;1.50;;;;;;;20.53;56.47;101538.53;5056794;28;20509;-70
2022/07/03 00:16:35;;;;;;;3.20;1.93;;;;;;;20.51;56.62;101532.59;5056646;28;20458;-70
2022/07/03 00:19:01;;;;;;;3.43;2.13;;;;;;;20.49;56.52;101529.38;5056679;28;20528;-70
2022/07/03 00:21:32;;;;;;;2.30;2.00;;;;;;;20.49;56.83;101534.88;5056699;28;20532;-70
2022/07/03 00:24:03;;;;;;;1.87;1.50;;;;;;;20.46;57.68;101532.81;5056889;28;20430;-70
2022/07/03 00:26:35;;;;;;;2.90;1.67;;;;;;;20.38;57.42;101527.06;5056578;28;20552;-70
2022/07/03 00:29:04;;;;;;;7.10;1.70;;;;;;;20.37;57.41;101527.41;5056317;28;20454;-70
2022/07/03 00:31:32;;;;;;;3.20;1.97;;;;;;;20.38;56.73;101523.50;5056501;28;20478;-71
2022/07/03 00:34:02;;;;;;;2.70;2.10;;;;;;;20.30;57.94;101522.47;5056417;28;20565;-71
2022/07/03 00:36:34;;;;;;;2.70;1.53;;;;;;;20.29;58.17;101517.31;5056445;28;20466;-71
2022/07/03 00:39:01;;;;;;;1.67;1.57;;;;;;;20.24;58.82;101506.56;5056432;28;20433;-71
2022/07/03 00:41:30;;;;;;;3.13;2.03;;;;;;;20.24;58.55;101501.84;5056101;28;20540;-71
2022/07/03 00:43:57;;;;;;;3.43;1.67;;;;;;;20.20;58.78;101506.44;5056270;28;20446;-71
2022/07/03 00:46:26;;;;;;;2.10;1.80;;;;;;;20.13;58.85;101506.97;5055872;28;20999;-71
2022/07/03 00:48:54;;;;;;;3.50;1.60;;;;;;;20.10;59.03;101498.63;5056202;28;20452;-70
2022/07/03 00:51:26;;;;;;;2.37;1.20;;;;;;;20.08;59.20;101503.66;5056146;28;20450;-70
2022/07/03 00:53:55;;;;;;;2.50;1.77;;;;;;;20.05;60.21;101496.88;5056094;28;20509;-70
2022/07/03 00:56:25;;;;;;;2.37;1.50;;;;;;;20.07;58.20;101491.06;5055953;28;20470;-72
2022/07/03 00:58:54;;;;;;;2.07;1.43;;;;;;;20.01;58.12;101497.91;5055693;28;20924;-72
2022/07/03 01:01:23;;;;;;;3.63;1.77;;;;;;;19.95;59.72;101488.31;5055640;28;20824;-72
2022/07/03 01:04:00;;;;;;;2.20;1.80;;;;;;;19.91;59.31;101488.97;5055892;28;20829;-72
2022/07/03 01:06:35;;;;;;;2.30;1.73;;;;;;;19.91;60.13;101491.72;5055612;28;20470;-74
2022/07/03 01:09:04;;;;;;;4.27;2.07;;;;;;;19.93;61.44;101485.09;5055558;28;20509;-70
2022/07/03 01:11:46;;;;;;;2.13;1.60;;;;;;;19.89;61.75;101488.53;5055763;28;20525;-70
2022/07/03 01:14:21;;;;;;;1.60;1.50;;;;;;;19.85;61.61;101489.56;5055660;28;20466;-70
2022/07/03 01:16:56;;;;;;;4.00;1.90;;;;;;;19.81;62.03;101483.94;5055656;28;20472;-70
2022/07/03 01:19:42;;;;;;;2.30;1.83;;;;;;;19.73;61.51;101476.59;5055652;28;20426;-70
2022/07/03 01:22:30;;;;;;;3.33;1.97;;;;;;;19.73;60.41;101479.34;5055484;28;20799;-70
2022/07/03 01:25:17;;;;;;;2.90;2.17;;;;;;;19.72;60.60;101488.72;5055245;28;20770;-70
2022/07/03 01:28:09;;;;;;;2.97;2.40;;;;;;;19.65;61.29;101477.47;5055378;28;20458;-70
2022/07/03 01:30:39;;;;;;;3.00;2.20;;;;;;;19.63;62.14;101474.28;5055423;28;20427;-70
2022/07/03 01:33:08;;;;;;;3.40;2.47;;;;;;;19.61;63.50;101469.13;5055342;28;20457;-70
2022/07/03 01:35:37;;;;;;;2.57;1.87;;;;;;;19.56;63.74;101465.75;5055249;28;20937;-70
2022/07/03 01:38:06;;;;;;;2.00;1.77;;;;;;;19.51;63.76;101464.03;5055199;28;20561;-70
2022/07/03 01:40:35;;;;;;;2.30;2.10;;;;;;;19.45;63.13;101470.09;5054895;28;20899;-70
2022/07/03 01:43:05;;;;;;;3.67;2.30;;;;;;;19.46;62.00;101467.00;5055147;28;20496;-70
2022/07/03 01:45:35;;;;;;;3.03;2.10;;;;;;;19.49;60.99;101474.56;5055083;28;20442;-70
2022/07/03 01:48:03;;;;;;;2.83;2.00;;;;;;;19.50;61.33;101469.88;5054990;28;20497;-70
2022/07/03 01:50:32;;;;;;;2.43;1.93;;;;;;;19.48;64.10;101470.22;5055103;28;20476;-70
2022/07/03 01:53:02;;;;;;;2.50;2.00;;;;;;;19.45;62.62;101468.13;5055041;28;20527;-71
2022/07/03 01:55:31;;;;;;;2.40;1.93;;;;;;;19.43;63.87;101464.91;5054552;28;20482;-71
2022/07/03 01:57:58;;;;;;;2.43;2.23;;;;;;;19.38;61.82;101462.38;5054836;28;20454;-71
2022/07/03 02:00:26;;;;;;;2.80;2.30;;;;;;;19.34;62.26;101470.50;5054831;28;20517;-70
2022/07/03 02:03:02;;;;;;;3.73;2.30;;;;;;;19.35;62.85;101471.31;5054810;28;20868;-71
2022/07/03 02:05:33;;;;;;;4.40;2.53;;;;;;;19.33;61.63;101468.91;5054858;28;20506;-71
2022/07/03 02:08:07;;;;;;;3.60;2.57;;;;;;;19.30;63.91;101477.84;5054219;28;20477;-71
2022/07/03 02:10:38;;;;;;;2.50;2.27;;;;;;;19.28;64.47;101474.59;5054255;28;20907;-71
2022/07/03 02:13:10;;;;;;;3.67;2.10;;;;;;;19.25;63.94;101469.78;5054062;28;20431;-71
2022/07/03 02:15:41;;;;;;;2.20;2.00;;;;;;;19.23;65.38;101468.53;5054699;28;20600;-71
2022/07/03 02:18:17;;;;;;;2.77;2.03;;;;;;;19.19;65.45;101467.59;5054534;28;20557;-70
2022/07/03 02:20:57;;;;;;;3.67;2.40;;;;;;;19.16;64.61;101469.88;5054520;28;20422;-71
2022/07/03 02:23:27;;;;;;;3.30;1.67;;;;;;;19.12;65.75;101462.63;5054549;28;20414;-71
2022/07/03 02:25:57;;;;;;;3.17;2.40;;;;;;;19.07;66.06;101463.66;5054020;28;20427;-71
2022/07/03 02:28:35;;;;;;;4.80;2.53;;;;;;;19.02;66.08;101463.84;5054051;28;20426;-71
2022/07/03 02:31:03;;;;;;;1.60;1.50;;;;;;;18.98;66.49;101451.94;5053985;28;20908;-70
2022/07/03 02:33:33;;;;;;;3.13;2.23;;;;;;;18.94;67.30;101461.19;5053650;28;20442;-71
2022/07/03 02:36:01;;;;;;;2.90;2.23;;;;;;;18.90;67.37;101455.56;5053688;28;21010;-71
2022/07/03 02:38:29;;;;;;;2.33;2.10;;;;;;;18.82;66.94;101449.03;5054129;28;20438;-71
2022/07/03 02:41:03;;;;;;;3.77;2.40;;;;;;;18.78;66.55;101455.53;5054142;28;20442;-71
2022/07/03 02:43:39;;;;;;;4.00;2.40;;;;;;;18.78;67.31;101450.84;5054088;28;20513;-71
2022/07/03 02:48:52;;;;;;;2.13;1.80;;;;;;;18.82;67.65;101446.28;5053779;28;20430;-71
2022/07/03 02:51:23;;;;;;;4.30;2.70;;;;;;;18.80;68.18;101448.53;5053857;28;20446;-71
2022/07/03 02:53:58;;;;;;;3.00;2.40;;;;;;;18.78;68.71;101448.09;5053835;28;20533;-71
2022/07/03 02:56:35;;;;;;;4.00;2.63;;;;;;;18.76;69.78;101457.78;5053386;28;20485;-70
2022/07/03 02:59:15;;;;;;;2.53;1.90;;;;;;;18.68;70.48;101453.94;5053809;28;20426;-71
2022/07/03 03:01:48;;;;;;;3.40;1.90;;;;;;;18.55;71.23;101453.06;5053453;28;20521;-70
2022/07/03 03:04:22;;;;;;;2.87;2.50;;;;;;;18.49;72.95;101453.59;5053386;28;20904;-71
2022/07/03 03:06:55;;;;;;;2.80;2.10;;;;;;;18.39;73.46;101447.38;5053227;28;21073;-71
2022/07/03 03:09:27;;;;;;;2.67;2.00;;;;;;;18.33;73.81;101445.97;5053310;28;20517;-70
2022/07/03 03:12:01;;;;;;;2.60;2.17;;;;;;;18.25;74.54;101448.75;5053572;28;20818;-70
2022/07/03 03:14:38;;;;;;;2.93;2.33;;;;;;;18.13;75.42;101450.25;5053495;28;20422;-70
2022/07/03 03:17:06;;;;;;;3.07;2.70;;;;;;;18.02;73.65;101449.03;5053383;28;20545;-70
2022/07/03 03:19:40;;;;;;;3.43;2.50;;;;;;;17.86;72.84;101440.56;5053085;28;20553;-70
2022/07/03 03:22:17;;;;;;;3.63;2.33;;;;;;;17.69;76.11;101443.34;5053097;28;20968;-70
2022/07/03 03:24:44;;;;;;;2.90;2.43;;;;;;;17.60;77.52;101451.56;5053273;28;20422;-70
2022/07/03 03:27:11;;;;;;;2.30;2.10;;;;;;;17.55;77.90;101445.47;5053243;28;20552;-70
2022/07/03 03:29:39;;;;;;;5.53;3.10;;;;;;;17.50;78.99;101448.41;5053273;28;20438;-70
2022/07/03 03:32:06;;;;;;;3.67;2.67;;;;;;;17.44;78.79;101449.69;5053249;28;20466;-74
2022/07/03 03:34:35;;;;;;;3.73;2.87;;;;;;;17.42;79.00;101447.28;5053149;28;20469;-70
2022/07/03 03:37:01;;;;;;;3.40;2.30;;;;;;;17.47;80.16;101446.31;5053066;28;20541;-70
2022/07/03 03:39:28;;;;;;;4.50;3.60;;;;;;;17.45;80.89;101437.63;5053190;28;20843;-70
2022/07/03 03:41:55;;;;;;;4.90;2.80;;;;;;;17.40;80.98;101450.34;5053147;28;20433;-69
2022/07/03 03:44:22;;;;;;;2.87;2.33;;;;;;;17.37;81.53;101448.25;5052184;28;20525;-69
2022/07/03 03:46:50;;;;;;;3.40;2.50;;;;;;;17.38;82.35;101444.38;5052967;28;20492;-70
2022/07/03 03:49:16;;;;;;;3.77;2.60;;;;;;;17.38;82.58;101444.38;5052734;28;20485;-70
2022/07/03 03:51:45;;;;;;;3.93;2.00;;;;;;;17.34;83.71;101443.44;5053005;28;20529;-71
2022/07/03 03:54:11;;;;;;;5.90;3.10;;;;;;;17.34;83.88;101440.69;5053022;28;20524;-71
2022/07/03 03:56:38;;;;;;;2.53;1.93;;;;;;;17.39;84.43;101435.03;5052849;28;20485;-71
2022/07/03 03:59:05;;;;;;;3.00;2.30;;;;;;;17.39;85.24;101440.50;5052977;28;20481;-71
2022/07/03 04:01:31;;;;;;;3.20;2.23;;;;;;;17.47;84.31;101438.09;5052700;28;21011;-72
2022/07/03 04:03:59;;;;;;;3.57;2.63;;;;;;;17.51;84.51;101434.38;5052560;28;20959;-72
2022/07/03 04:06:25;;;;;;;4.03;2.80;;;;;;;17.55;82.37;101442.75;5052642;28;20473;-72
2022/07/03 04:08:53;;;;;;;3.80;3.10;;;;;;;17.62;80.46;101441.13;5052862;28;20430;-72
2022/07/03 04:11:20;;;;;;;2.90;2.20;;;;;;;17.70;80.23;101442.19;5052939;28;20556;-70
2022/07/03 04:13:47;;;;;;;2.97;2.50;;;;;;;17.80;79.16;101447.38;5052601;28;20879;-71
2022/07/03 04:16:13;;;;;;;4.40;2.90;;;;;;;17.90;78.11;101441.50;5052686;28;20568;-71
2022/07/03 04:18:40;;;;;;;3.43;2.67;;;;;;;18.08;76.28;101441.44;5052946;28;20533;-71
2022/07/03 04:21:07;;;;;;;2.43;2.23;;;;;;;18.20;76.14;101438.78;5052776;28;20484;-71
2022/07/03 04:23:33;;;;;;;3.10;2.30;;;;;;;18.29;75.54;101439.53;5052759;28;20474;-70
2022/07/03 04:26:05;;;;;;;2.70;2.10;;;;;;;18.36;76.37;101431.56;5052633;28;20441;-71
2022/07/03 04:28:32;;;;;;;2.93;2.43;;;;;;;18.45;76.00;101436.19;5052725;28;20427;-70
2022/07/03 04:30:59;;;;;;;3.53;2.70;;;;;;;18.55;75.75;101433.03;5052739;28;20449;-72
2022/07/03 04:33:26;;;;;;;5.17;3.03;;;;;;;18.60;74.79;101432.88;5052666;28;20441;-71
2022/07/03 04:35:53;;;;;;;4.57;3.00;;;;;;;18.60;74.07;101432.88;5052017;28;20568;-72
2022/07/03 04:38:19;;;;;;;2.87;2.17;;;;;;;18.65;74.79;101427.16;5052544;28;20855;-71
2022/07/03 04:40:46;;;;;;;2.73;2.10;;;;;;;18.76;74.57;101422.91;5052583;28;20533;-71
2022/07/03 04:43:16;;;;;;;4.50;2.40;;;;;;;18.84;72.53;101432.22;5052218;28;20533;-71
2022/07/03 04:45:43;;;;;;;3.83;2.60;;;;;;;18.93;71.58;101423.91;5052777;28;20469;-71
2022/07/03 04:48:09;;;;;;;3.00;2.43;;;;;;;19.00;72.59;101426.91;5052485;28;20541;-72
2022/07/03 04:50:36;;;;;;;4.90;3.10;;;;;;;19.04;72.35;101425.09;5052430;28;21031;-74
2022/07/03 04:53:03;;;;;;;2.50;2.30;;;;;;;19.09;72.93;101427.63;5052194;28;20504;-71
2022/07/03 04:55:29;;;;;;;2.33;1.83;;;;;;;19.10;73.47;101419.03;5053004;28;20572;-71
2022/07/03 04:57:56;;;;;;;2.80;2.20;;;;;;;19.21;72.51;101421.34;5056000;28;20552;-71
2022/07/03 05:00:24;;;;;;;7.70;3.13;;;;;;;19.25;72.76;101423.09;5056051;28;20518;-71
2022/07/03 05:02:50;;;;;;;3.20;2.57;;;;;;;19.31;73.14;101423.69;5055584;28;20442;-71
2022/07/03 05:05:17;;;;;;;3.00;2.20;;;;;;;19.31;72.39;101412.69;5055795;28;20442;-71
2022/07/03 05:07:44;;;;;;;3.80;2.80;;;;;;;19.41;71.71;101417.75;5054499;28;21074;-71
2022/07/03 05:10:11;;;;;;;2.23;2.00;;;;;;;19.48;70.51;101415.25;5054701;28;20442;-70
2022/07/03 05:12:37;;;;;;;2.60;1.97;;;;;;;19.53;68.71;101417.78;5054643;28;20478;-71
2022/07/03 05:15:05;;;;;;;3.00;2.43;;;;;;;19.65;66.26;101419.75;5054605;28;20474;-71
2022/07/03 05:17:34;;;;;;;6.53;2.87;;;;;;;19.73;67.17;101420.81;5054425;28;20465;-70
2022/07/03 05:22:42;;;;;;;3.80;2.40;;;;;;;19.86;67.75;101414.97;5053916;28;20438;-71
2022/07/03 05:25:09;;;;;;;2.90;2.13;;;;;;;19.91;67.18;101411.19;5054444;28;20442;-71
2022/07/03 05:27:37;;;;;;;3.50;2.50;;;;;;;19.96;68.52;101412.91;5053969;28;21054;-71
2022/07/03 05:30:04;;;;;;;2.10;1.90;;;;;;;20.02;68.84;101417.03;5054310;28;20517;-71
2022/07/03 05:32:30;;;;;;;2.10;1.70;;;;;;;20.08;67.14;101412.91;5053973;28;20525;-71
2022/07/03 05:34:58;;;;;;;2.77;1.93;;;;;;;20.17;65.03;101419.06;5054276;28;20533;-71
2022/07/03 05:37:25;;;;;;;2.37;1.77;;;;;;;20.23;66.74;101416.88;5054040;28;20568;-71
2022/07/03 05:39:52;;;;;;;3.37;2.10;;;;;;;20.31;67.38;101410.44;5054213;28;20499;-71
2022/07/03 05:42:18;;;;;;;3.03;2.10;;;;;;;20.37;67.97;101418.13;5054198;28;20867;-74
2022/07/03 05:44:48;;;;;;;3.03;2.13;;;;;;;20.40;65.89;101411.91;5054123;28;20563;-75
2022/07/03 05:47:15;;;;;;;2.33;1.63;;;;;;;20.49;67.13;101413.75;5054108;28;20463;-76
2022/07/03 05:49:41;;;;;;;2.97;2.40;;;;;;;20.55;65.12;101406.88;5053760;28;20972;-76
2022/07/03 05:52:09;;;;;;;2.83;2.07;;;;;;;20.64;62.66;101408.34;5054004;28;20448;-71
2022/07/03 05:54:36;;;;;;;2.60;1.80;;;;;;;20.77;61.73;101408.31;5053885;28;20446;-70
2022/07/03 05:57:03;;;;;;;2.37;1.97;;;;;;;20.89;61.31;101406.31;5053793;28;20572;-69
2022/07/03 05:59:30;;;;;;;2.77;1.77;;;;;;;20.98;64.80;101402.56;5053562;28;20529;-69
2022/07/03 06:01:56;;;;;;;3.40;1.80;;;;;;;20.99;65.20;101395.94;5053840;28;20541;-69
2022/07/03 06:04:23;;;;;;;2.37;2.07;;;;;;;21.09;60.12;101401.72;5054089;28;20529;-69
2022/07/03 06:06:49;;;;;;;2.87;1.57;;;;;;;21.12;60.23;101390.00;5015043;28;1090027;-69
2022/07/03 06:09:18;;;;;;;7.33;2.10;;;;;;;21.23;59.88;101404.06;5079828;22;20268;-69
2022/07/03 06:11:44;;;;;;;2.63;2.10;;;;;;;21.29;60.96;101402.63;5033321;28;20420;-69
2022/07/03 06:14:11;;;;;;;2.10;1.90;;;;;;;21.42;59.25;101393.16;5033502;28;20439;-68
2022/07/03 06:16:38;;;;;;;2.83;2.03;;;;;;;21.45;61.75;101402.69;5033204;28;20569;-68
2022/07/03 06:19:04;;;;;;;2.30;1.80;;;;;;;21.49;60.84;101397.25;5033376;28;20468;-68
2022/07/03 06:21:31;;;;;;;2.43;1.73;;;;;;;21.61;58.99;101386.16;5033413;28;20894;-68
2022/07/03 06:23:57;;;;;;;2.30;1.90;;;;;;;21.64;60.26;101386.22;5033216;28;20435;-69
2022/07/03 06:26:25;;;;;;;2.70;2.00;;;;;;;21.73;59.76;101380.50;5032816;28;21167;-68
2022/07/03 06:28:52;;;;;;;2.63;1.93;;;;;;;21.78;58.83;101374.75;5033072;28;20481;-70
2022/07/03 06:31:19;;;;;;;2.30;1.70;;;;;;;21.88;58.71;101371.44;5032627;28;20475;-69
2022/07/03 06:33:46;;;;;;;1.83;1.50;;;;;;;21.93;59.17;101370.34;5032654;28;20956;-69
2022/07/03 06:36:12;;;;;;;2.33;1.60;;;;;;;22.04;58.50;101370.59;5032530;28;20558;-69
2022/07/03 06:38:39;;;;;;;2.03;1.77;;;;;;;22.03;58.71;101374.53;5033003;28;20479;-68
2022/07/03 06:41:06;;;;;;;10.33;1.93;;;;;;;22.13;57.61;101371.22;5032459;28;21204;-69
2022/07/03 06:43:33;;;;;;;2.00;1.60;;;;;;;22.23;56.77;101373.44;5033864;28;20454;-67
2022/07/03 06:46:00;;;;;;;2.23;1.50;;;;;;;22.42;54.83;101373.44;5033978;28;20526;-68
2022/07/03 06:48:27;;;;;;;2.80;1.90;;;;;;;22.52;55.75;101374.03;5034085;28;20529;-68
2022/07/03 06:50:53;;;;;;;8.83;2.00;;;;;;;22.65;53.20;101387.31;5033693;28;20538;-69
2022/07/03 06:53:20;;;;;;;2.33;1.87;;;;;;;22.76;53.14;101386.75;5034123;28;20471;-68
2022/07/03 06:55:46;;;;;;;2.50;1.67;;;;;;;22.81;54.73;101387.25;5033666;28;20530;-69
2022/07/03 06:58:14;;;;;;;2.63;1.30;;;;;;;22.83;54.24;101379.38;5034152;28;20474;-68
2022/07/03 07:00:42;;;;;;;1.73;1.50;;;;;;;22.94;52.87;101376.09;5033480;28;20546;-76
2022/07/03 07:03:09;;;;;;;1.73;1.23;;;;;;;23.00;53.01;101380.13;5034222;28;20482;-75
2022/07/03 07:05:36;;;;;;;1.60;1.43;;;;;;;23.10;52.17;101374.78;5033752;28;20975;-75
2022/07/03 07:08:03;;;;;;;3.10;1.77;;;;;;;23.17;52.09;101372.16;5034327;28;20481;-71
2022/07/03 07:10:30;;;;;;;3.20;1.97;;;;;;;23.19;53.58;101373.75;5033259;28;21000;-70
2022/07/03 07:12:56;;;;;;;3.40;2.00;;;;;;;23.20;54.02;101370.66;5033674;28;20518;-71
2022/07/03 07:15:23;;;;;;;2.70;1.80;;;;;;;23.30;53.41;101370.03;5033385;28;21017;-70
2022/07/03 07:17:51;;;;;;;3.77;2.07;;;;;;;23.38;53.15;101365.41;5033511;28;20570;-70
2022/07/03 07:20:17;;;;;;;2.80;1.80;;;;;;;23.52;51.45;101364.84;5033479;28;20538;-71
2022/07/03 07:22:44;;;;;;;2.97;1.67;;;;;;;23.65;50.12;101355.22;5033709;28;20477;-70
2022/07/03 07:25:11;;;;;;;1.40;1.30;;;;;;;23.75;49.82;101365.63;5033362;28;20535;-72
2022/07/03 07:27:37;;;;;;;2.80;1.70;;;;;;;23.78;50.94;101366.88;5034128;28;20530;-70
2022/07/03 07:30:05;;;;;;;1.40;1.20;;;;;;;23.88;50.88;101367.03;5033770;28;20471;-70
2022/07/03 07:32:31;;;;;;;2.37;1.23;;;;;;;23.97;49.73;101361.22;5033759;28;20542;-70
2022/07/03 07:34:59;;;;;;;2.23;1.50;;;;;;;24.05;50.99;101364.91;5033070;28;20453;-72
2022/07/03 07:37:26;;;;;;;1.87;1.67;;;;;;;24.12;49.48;101365.78;5033352;28;20515;-71
2022/07/03 07:39:52;;;;;;;1.73;1.20;;;;;;;24.22;49.21;101363.56;5033104;28;20847;-75
2022/07/03 07:42:19;;;;;;;1.97;1.50;;;;;;;24.18;49.71;101363.50;5033556;28;20503;-73
2022/07/03 07:44:46;;;;;;;2.03;1.50;;;;;;;24.16;50.21;101360.28;5033293;28;20553;-70
2022/07/03 07:47:12;;;;;;;1.30;1.00;;;;;;;24.20;49.87;101355.59;5033057;28;20526;-69
2022/07/03 07:49:39;;;;;;;2.20;1.17;;;;;;;24.37;48.90;101363.38;5033108;28;20503;-71
2022/07/03 07:52:08;;;;;;;2.60;1.47;;;;;;;24.43;48.37;101349.97;5033566;28;20439;-71
2022/07/03 07:54:34;;;;;;;1.73;1.57;;;;;;;24.48;49.40;101349.69;5033239;28;20534;-71
2022/07/03 07:57:01;;;;;;;1.40;1.30;;;;;;;24.50;48.00;101352.06;5033219;28;20570;-71
2022/07/03 07:59:27;;;;;;;1.30;1.20;;;;;;;24.58;47.22;101337.91;5032688;28;20557;-71
2022/07/03 08:07:23;;;;;;;2.60;1.87;;;;;;;24.46;51.10;101340.13;5032977;28;20454;-71
2022/07/03 08:09:52;;;;;;;4.40;1.60;;;;;;;24.53;49.54;101343.00;5032586;28;20486;-73
2022/07/03 08:12:19;;;;;;;2.37;1.70;;;;;;;24.56;50.45;101345.00;5032773;28;20483;-72
2022/07/03 08:14:46;;;;;;;1.77;1.30;;;;;;;24.36;52.00;101347.91;5032998;28;20485;-73
2022/07/03 08:17:13;;;;;;;2.03;1.40;;;;;;;24.20;56.21;101339.00;5032989;28;20570;-72
2022/07/03 08:19:40;;;;;;;3.37;1.67;;;;;;;24.15;54.79;101342.09;5032851;28;20498;-72
2022/07/03 08:22:06;;;;;;;1.90;1.20;;;;;;;24.19;50.04;101350.44;5033004;28;20450;-73
2022/07/03 08:24:34;;;;;;;3.67;1.93;;;;;;;24.24;53.95;101328.75;5032512;28;21020;-71
2022/07/03 08:27:01;;;;;;;2.10;1.90;;;;;;;24.26;51.33;101337.50;5032913;28;20519;-73
2022/07/03 08:29:28;;;;;;;1.80;1.40;;;;;;;24.21;52.16;101328.72;5032783;28;20459;-73
2022/07/03 08:31:54;;;;;;;1.80;1.47;;;;;;;24.17;54.26;101323.94;5035717;28;20482;-71
2022/07/03 08:34:21;;;;;;;2.03;1.60;;;;;;;24.05;59.12;101326.94;5036345;28;20453;-71
2022/07/03 08:36:47;;;;;;;2.60;2.00;;;;;;;24.06;56.53;101320.22;5035988;28;21099;-71
2022/07/03 08:39:14;;;;;;;1.67;1.37;;;;;;;24.13;50.71;101327.84;5036319;28;20537;-72
2022/07/03 08:41:42;;;;;;;1.77;1.27;;;;;;;24.19;50.37;101328.31;5036028;28;21031;-70
2022/07/03 08:44:10;;;;;;;1.60;1.40;;;;;;;24.45;47.45;101333.00;5036081;28;20828;-72
2022/07/03 08:46:39;;;;;;;2.07;1.63;;;;;;;24.54;48.82;101319.66;5036340;28;20530;-72
2022/07/03 08:49:07;;;;;;;2.17;1.70;;;;;;;24.54;47.80;101309.38;5035971;28;20954;-72
2022/07/03 08:51:35;;;;;;;2.40;1.57;;;;;;;24.64;48.91;101310.66;5036478;28;20439;-72
2022/07/03 08:54:02;;;;;;;2.73;1.90;;;;;;;24.88;46.77;101309.31;5036380;28;20529;-72
2022/07/03 08:56:29;;;;;;;5.57;3.00;;;;;;;25.06;47.59;101312.28;5035829;28;20450;-72
2022/07/03 08:58:58;;;;;;;1.23;1.07;;;;;;;25.20;45.78;101306.88;5035910;28;20486;-72
2022/07/03 09:01:26;;;;;;;1.97;1.47;;;;;;;25.30;47.10;101300.63;5035842;28;20469;-72
2022/07/03 09:03:53;;;;;;;1.83;1.43;;;;;;;25.38;44.86;101305.03;5035826;28;20471;-72
2022/07/03 09:06:20;;;;;;;1.77;1.50;;;;;;;25.40;45.79;101302.66;5036098;28;20442;-72
2022/07/03 09:08:47;;;;;;;2.80;1.37;;;;;;;25.50;46.52;101305.91;5036017;28;20478;-72
2022/07/03 09:11:14;;;;;;;2.43;1.97;;;;;;;25.55;44.74;101306.34;5035400;28;20569;-72
2022/07/03 09:13:41;;;;;;;1.40;1.30;;;;;;;25.55;45.94;101300.00;5035966;28;20478;-72
2022/07/03 09:16:15;;;;;;;1.33;1.13;;;;;;;25.64;45.70;101308.78;5035892;28;20443;-72
2022/07/03 09:18:43;;;;;;;2.20;1.83;;;;;;;25.82;45.14;101317.25;5035476;28;20549;-74
2022/07/03 09:21:10;;;;;;;1.80;1.50;;;;;;;25.88;44.78;101296.25;5035698;28;20831;-72
2022/07/03 09:23:38;;;;;;;1.33;1.23;;;;;;;25.87;45.08;101306.56;5035984;28;20483;-72
2022/07/03 09:26:06;;;;;;;2.20;1.50;;;;;;;25.82;47.94;101304.16;5035802;28;20454;-72
2022/07/03 09:28:47;;;;;;;1.70;1.60;;;;;;;25.82;45.54;101306.94;5035802;28;20522;-72
2022/07/03 09:31:17;;;;;;;2.07;1.57;;;;;;;25.81;46.56;101299.81;5035779;28;20467;-71
2022/07/03 09:33:58;;;;;;;3.00;1.57;;;;;;;25.92;46.32;101297.88;5035401;28;21014;-72
2022/07/03 09:36:43;;;;;;;1.70;1.50;;;;;;;25.98;47.22;101300.28;5035884;28;20466;-71
2022/07/03 09:39:29;;;;;;;2.17;1.47;;;;;;;26.08;47.90;101292.00;5035423;28;20431;-71
2022/07/03 09:41:58;;;;;;;1.80;1.30;;;;;;;26.16;47.23;101299.19;5035047;28;20427;-70
2022/07/03 09:44:36;;;;;;;2.43;1.60;;;;;;;26.20;45.10;101296.41;5035115;28;20486;-71
2022/07/03 09:47:17;;;;;;;2.17;1.77;;;;;;;26.31;46.11;101302.03;5035266;28;20474;-71
2022/07/03 09:49:50;;;;;;;1.33;1.23;;;;;;;26.34;44.83;101301.22;5035190;28;20474;-71
2022/07/03 09:52:36;;;;;;;2.10;1.30;;;;;;;26.35;46.05;101288.94;5035181;28;20447;-71
2022/07/03 09:55:14;;;;;;;1.43;1.17;;;;;;;26.36;45.31;101294.09;5035171;28;20430;-72
2022/07/03 09:57:43;;;;;;;2.50;1.47;;;;;;;26.48;43.99;101289.41;5034995;28;20561;-71
2022/07/03 10:00:13;;;;;;;1.53;1.43;;;;;;;26.66;42.28;101290.25;5034982;28;20470;-69
2022/07/03 10:03:03;;;;;;;1.73;1.43;;;;;;;26.70;42.25;101285.47;5034776;28;20980;-71
2022/07/03 10:05:32;;;;;;;3.00;1.40;;;;;;;26.65;43.92;101278.31;5035002;28;20526;-72
2022/07/03 10:08:00;;;;;;;1.50;1.23;;;;;;;26.68;44.04;101279.50;5034778;28;20876;-71
2022/07/03 10:10:29;;;;;;;1.53;1.23;;;;;;;26.69;46.80;101281.09;5034488;28;20858;-71
2022/07/03 10:12:57;;;;;;;4.67;1.60;;;;;;;26.75;46.25;101276.75;5034672;28;20439;-71
2022/07/03 10:15:25;;;;;;;1.50;1.13;;;;;;;26.84;46.46;101282.72;5034663;28;20447;-71
2022/07/03 10:17:53;;;;;;;1.50;1.40;;;;;;;26.99;42.77;101283.50;5034311;28;20514;-72
2022/07/03 10:20:29;;;;;;;1.63;1.50;;;;;;;27.14;41.63;101284.34;5034440;28;20467;-70
2022/07/03 10:22:56;;;;;;;1.30;1.10;;;;;;;27.18;42.90;101274.00;5034612;28;20514;-71
2022/07/03 10:25:23;;;;;;;1.33;1.23;;;;;;;27.26;41.55;101277.59;5034292;28;20922;-71
2022/07/03 10:27:50;;;;;;;2.10;1.33;;;;;;;27.31;41.47;101269.63;5034084;28;20529;-71
2022/07/03 10:30:19;;;;;;;1.77;1.33;;;;;;;27.39;42.63;101268.41;5034079;28;20463;-71
2022/07/03 10:32:47;;;;;;;1.60;1.50;;;;;;;27.47;40.18;101262.84;5034053;28;20530;-71
2022/07/03 10:35:15;;;;;;;4.40;1.87;;;;;;;27.46;44.34;101269.63;5034075;28;20994;-71
2022/07/03 10:37:54;;;;;;;2.77;1.60;;;;;;;27.54;44.15;101266.44;5034193;28;20587;-71
2022/07/03 10:46:10;;;;;;;1.60;1.37;;;;;;;27.79;41.46;101265.56;5034306;28;20905;-72
2022/07/03 10:48:57;;;;;;;2.87;1.57;;;;;;;27.90;42.63;101256.00;5033769;28;20439;-73
2022/07/03 10:51:24;;;;;;;2.23;1.33;;;;;;;28.06;41.24;101252.72;5033949;28;20506;-71
2022/07/03 10:54:16;;;;;;;1.57;1.47;;;;;;;28.26;41.21;101255.84;5033203;28;20890;-68
2022/07/03 10:57:11;;;;;;;1.70;1.20;;;;;;;28.32;42.03;101254.19;5033662;28;20431;-71
2022/07/03 10:59:57;;;;;;;1.73;1.10;;;;;;;28.31;38.79;101244.25;5033941;28;20499;-72
2022/07/03 11:02:24;;;;;;;2.30;1.67;;;;;;;28.32;40.84;101251.41;5034382;28;20457;-71
2022/07/03 11:05:08;;;;;;;4.13;1.70;;;;;;;28.47;39.17;101245.81;5033951;28;20562;-70
2022/07/03 11:07:40;;;;;;;2.23;1.67;;;;;;;28.38;38.30;101244.25;5033825;28;20428;-70
2022/07/03 11:10:32;;;;;;;1.23;1.10;;;;;;;28.39;43.28;101243.06;5033426;28;20506;-68
2022/07/03 11:13:01;;;;;;;1.90;1.63;;;;;;;28.62;41.71;101244.50;5033526;28;20424;-67
2022/07/03 11:15:29;;;;;;;2.83;1.00;;;;;;;28.90;39.81;101237.91;5033682;28;20450;-69
2022/07/03 11:18:14;;;;;;;1.93;1.67;;;;;;;29.21;41.81;101241.63;5033562;28;20573;-69
2022/07/03 11:21:09;;;;;;;1.73;1.30;;;;;;;29.52;39.17;101227.75;5033600;28;20469;-68
2022/07/03 11:23:46;;;;;;;1.97;1.43;;;;;;;29.90;39.31;101228.53;5033717;28;20439;-69
2022/07/03 11:26:23;;;;;;;1.70;1.40;;;;;;;30.09;38.14;101221.50;5033647;28;20431;-69
2022/07/03 11:28:53;;;;;;;2.83;1.50;;;;;;;30.48;39.24;101212.56;5033410;28;20439;-69
2022/07/03 11:31:23;;;;;;;1.83;1.10;;;;;;;30.82;37.39;101220.84;5033415;28;20510;-69
2022/07/03 11:33:58;;;;;;;1.50;1.20;;;;;;;31.19;38.21;101221.81;5033254;28;20443;-70
2022/07/03 11:36:28;;;;;;;2.10;1.30;;;;;;;31.62;38.03;101218.22;5033332;28;20880;-69
2022/07/03 11:39:06;;;;;;;1.43;1.13;;;;;;;31.86;37.47;101211.31;5033104;28;20914;-70
2022/07/03 11:41:45;;;;;;;1.40;0.90;;;;;;;31.47;36.31;101200.88;5033429;28;20459;-69
2022/07/03 11:44:18;;;;;;;1.20;1.00;;;;;;;31.39;37.88;101196.69;5033103;28;20926;-69
2022/07/03 11:46:52;;;;;;;1.17;0.90;;;;;;;31.61;35.18;101195.03;5033200;28;20534;-70
2022/07/03 11:49:21;;;;;;;1.37;0.90;;;;;;;31.54;35.97;101191.56;5032945;28;20784;-69
2022/07/03 11:51:59;;;;;;;1.30;1.10;;;;;;;32.05;36.14;101192.91;5033209;28;20538;-69
2022/07/03 11:54:26;;;;;;;1.20;0.97;;;;;;;32.14;33.46;101197.91;5032857;28;20450;-69